Time;durP1;ratioP1;P1;durP2;ratioP2;P2;SDS_P1;SDS_P2;PMS_P1;PMS_P2;Temp;Humidity;BMP_temperature;BMP_pressure;BME280_temperature;BME280_humidity;BME280_pressure;Samples;Min_cycle;Max_cycle;Signal;HPM_P1;HPM_P2
2023/05/24 00:01:51;;;;;;;10.10;4.25;;;7.90;99.90;;;;;;5015292;28;20601;-76
2023/05/24 00:04:18;;;;;;;9.85;3.97;;;7.80;99.90;;;;;;5015293;28;20190;-76
2023/05/24 00:06:44;;;;;;;8.83;4.30;;;7.80;99.90;;;;;;5017610;28;20313;-77
2023/05/24 00:09:11;;;;;;;9.33;4.50;;;7.80;99.90;;;;;;5015637;28;20184;-76
2023/05/24 00:11:37;;;;;;;9.52;3.95;;;7.70;99.90;;;;;;5018160;28;20173;-76
2023/05/24 00:14:03;;;;;;;12.87;4.27;;;7.70;99.90;;;;;;5016878;28;20184;-77
2023/05/24 00:16:29;;;;;;;10.13;4.13;;;7.60;99.90;;;;;;5016311;28;20196;-76
2023/05/24 00:18:54;;;;;;;11.60;4.67;;;7.60;99.90;;;;;;5015956;28;20688;-76
2023/05/24 00:21:20;;;;;;;7.73;4.33;;;7.50;99.90;;;;;;5015684;28;20179;-77
2023/05/24 00:23:46;;;;;;;9.83;4.40;;;7.50;99.90;;;;;;5015653;28;20640;-76
2023/05/24 00:26:12;;;;;;;15.30;4.90;;;7.50;99.90;;;;;;5014200;28;20207;-76
2023/05/24 00:28:37;;;;;;;11.07;4.40;;;7.50;99.90;;;;;;5014723;28;20187;-76
2023/05/24 00:31:03;;;;;;;11.13;4.47;;;7.50;99.90;;;;;;5018168;28;20176;-76
2023/05/24 00:33:29;;;;;;;10.47;3.93;;;7.40;99.90;;;;;;5014360;28;20219;-76
2023/05/24 00:35:55;;;;;;;9.17;3.77;;;7.30;99.90;;;;;;5015937;28;20184;-76
2023/05/24 00:38:25;;;;;;;11.93;4.37;;;7.30;99.90;;;;;;5015173;28;20195;-76
2023/05/24 00:40:52;;;;;;;14.80;5.27;;;7.20;99.90;;;;;;5018126;28;20171;-78
2023/05/24 00:43:18;;;;;;;10.00;4.73;;;7.20;99.90;;;;;;5017910;28;20250;-78
2023/05/24 00:45:44;;;;;;;10.50;4.60;;;7.10;99.90;;;;;;5016658;28;20168;-78
2023/05/24 00:48:10;;;;;;;11.07;4.67;;;7.00;99.90;;;;;;5015082;28;20215;-78
2023/05/24 00:50:39;;;;;;;9.80;4.47;;;6.90;99.90;;;;;;5015794;28;20176;-78
2023/05/24 00:53:06;;;;;;;12.77;4.77;;;7.00;99.90;;;;;;5015713;28;20194;-78
2023/05/24 00:55:33;;;;;;;11.27;4.40;;;7.00;99.90;;;;;;5014422;28;20180;-78
2023/05/24 00:58:00;;;;;;;14.93;4.70;;;7.00;99.90;;;;;;5014368;28;20302;-78
2023/05/24 01:00:28;;;;;;;11.53;4.67;;;7.00;99.90;;;;;;5014406;28;20598;-78
2023/05/24 01:02:53;;;;;;;10.60;5.07;;;7.10;99.90;;;;;;5014349;28;20190;-78
2023/05/24 01:05:20;;;;;;;16.67;5.13;;;7.10;99.90;;;;;;5013867;28;20196;-78
2023/05/24 01:08:41;;;;;;;12.93;4.73;;;7.20;99.90;;;;;;5014267;28;20215;-78
2023/05/24 01:11:21;;;;;;;11.20;4.63;;;7.20;99.90;;;;;;4920297;29;20182;-78
2023/05/24 01:13:50;;;;;;;9.73;4.40;;;7.20;99.90;;;;;;5015728;28;20167;-78
2023/05/24 01:16:40;;;;;;;16.60;4.90;;;7.00;99.90;;;;;;5015435;28;20184;-77
2023/05/24 01:19:27;;;;;;;9.73;4.70;;;6.90;99.90;;;;;;5016253;28;20306;-78
2023/05/24 01:22:22;;;;;;;9.27;4.43;;;6.80;99.90;;;;;;5015508;28;20167;-78
2023/05/24 01:25:06;;;;;;;9.77;4.20;;;6.80;99.90;;;;;;5013992;28;20183;-78
2023/05/24 01:27:35;;;;;;;10.17;4.10;;;6.90;99.90;;;;;;5013505;28;20222;-78
2023/05/24 01:30:03;;;;;;;10.73;5.07;;;7.00;99.90;;;;;;5013884;28;20191;-78
2023/05/24 01:32:29;;;;;;;9.67;4.87;;;7.00;99.90;;;;;;5014018;28;20199;-78
2023/05/24 01:34:55;;;;;;;15.87;4.70;;;7.00;99.90;;;;;;5013677;28;20286;-78
2023/05/24 01:37:21;;;;;;;7.87;4.33;;;6.80;99.90;;;;;;5015181;28;20663;-78
2023/05/24 01:39:47;;;;;;;11.17;4.87;;;6.70;99.90;;;;;;5013894;28;20187;-78
2023/05/24 01:42:43;;;;;;;12.13;4.53;;;6.70;99.90;;;;;;5013603;28;20576;-78
2023/05/24 01:45:30;;;;;;;10.13;5.13;;;6.50;99.90;;;;;;5014192;28;20183;-78
2023/05/24 01:48:18;;;;;;;13.70;5.07;;;6.40;99.90;;;;;;5015005;28;20211;-78
2023/05/24 01:50:51;;;;;;;10.07;4.50;;;6.30;99.90;;;;;;5015703;28;20172;-77
2023/05/24 01:53:19;;;;;;;15.57;5.17;;;6.30;99.90;;;;;;5013908;28;20175;-78
2023/05/24 01:55:48;;;;;;;12.07;5.17;;;6.30;99.90;;;;;;5013722;28;20195;-78
2023/05/24 01:58:16;;;;;;;7.63;4.60;;;6.20;99.90;;;;;;5015482;28;20274;-78
2023/05/24 02:00:43;;;;;;;12.37;5.10;;;6.20;99.90;;;;;;5013553;28;20190;-78
2023/05/24 02:03:09;;;;;;;11.67;5.40;;;6.20;99.90;;;;;;5013557;28;20263;-78
2023/05/24 02:05:37;;;;;;;10.17;4.87;;;6.20;99.90;;;;;;5015228;28;20187;-79
2023/05/24 02:08:03;;;;;;;7.97;5.00;;;6.30;99.90;;;;;;5013411;28;20222;-78
2023/05/24 02:10:29;;;;;;;9.17;5.27;;;6.50;99.90;;;;;;5015252;28;20180;-78
2023/05/24 02:12:55;;;;;;;8.90;5.27;;;6.30;99.90;;;;;;5015027;28;20274;-78
2023/05/24 02:15:20;;;;;;;8.17;5.10;;;6.40;99.90;;;;;;5014759;28;20186;-78
2023/05/24 02:17:46;;;;;;;18.90;5.30;;;6.30;99.90;;;;;;5013631;28;20687;-79
2023/05/24 02:20:12;;;;;;;9.57;4.70;;;6.10;99.90;;;;;;5013730;28;20188;-78
2023/05/24 02:22:38;;;;;;;9.70;5.00;;;6.00;99.90;;;;;;5015161;28;20179;-78
2023/05/24 02:25:05;;;;;;;10.37;5.37;;;6.00;99.90;;;;;;5015120;28;20660;-79
2023/05/24 02:27:31;;;;;;;9.90;5.27;;;5.90;99.90;;;;;;5014650;28;20584;-78
2023/05/24 02:29:56;;;;;;;9.27;5.90;;;5.90;99.90;;;;;;5013831;28;20180;-78
2023/05/24 02:32:22;;;;;;;11.40;4.73;;;5.80;99.90;;;;;;5014406;28;20199;-79
2023/05/24 02:34:48;;;;;;;10.27;5.50;;;5.80;99.90;;;;;;5015526;28;20183;-78
2023/05/24 02:37:13;;;;;;;8.77;4.83;;;5.80;99.90;;;;;;5013575;28;20271;-78
2023/05/24 02:39:42;;;;;;;9.70;5.47;;;5.80;99.90;;;;;;5016668;28;20264;-79
2023/05/24 02:42:10;;;;;;;12.03;5.20;;;5.70;99.90;;;;;;5017903;28;20258;-78
2023/05/24 02:44:35;;;;;;;8.27;5.33;;;5.70;99.90;;;;;;5018822;28;20242;-78
2023/05/24 02:47:01;;;;;;;9.30;5.77;;;5.80;99.90;;;;;;5018838;28;20680;-78
2023/05/24 02:49:27;;;;;;;6.37;5.03;;;5.80;99.90;;;;;;5017477;28;20264;-79
2023/05/24 02:51:53;;;;;;;7.53;5.27;;;5.70;99.90;;;;;;5017570;28;20715;-78
2023/05/24 02:54:18;;;;;;;12.77;5.17;;;5.70;99.90;;;;;;5019118;28;20274;-78
2023/05/24 02:56:44;;;;;;;7.20;5.07;;;5.80;99.90;;;;;;5017656;28;20310;-78
2023/05/24 02:59:11;;;;;;;9.37;5.03;;;5.90;99.90;;;;;;5018813;28;20180;-78
2023/05/24 03:01:37;;;;;;;8.00;4.90;;;5.90;99.90;;;;;;5017639;28;20206;-78
2023/05/24 03:04:02;;;;;;;15.13;4.80;;;5.80;99.90;;;;;;5018089;28;20645;-78
2023/05/24 03:06:28;;;;;;;9.60;5.10;;;5.70;99.90;;;;;;5013176;28;20294;-78
2023/05/24 03:08:54;;;;;;;7.97;4.83;;;5.60;99.90;;;;;;5017897;28;20176;-77
2023/05/24 03:11:20;;;;;;;7.47;5.33;;;5.50;99.90;;;;;;5017908;28;20183;-78
2023/05/24 03:13:47;;;;;;;11.87;5.53;;;5.50;99.90;;;;;;5018351;28;20310;-78
2023/05/24 03:16:13;;;;;;;11.33;5.20;;;5.40;99.90;;;;;;5016459;28;20186;-78
2023/05/24 03:18:39;;;;;;;9.60;5.07;;;5.40;99.90;;;;;;5016832;28;20180;-78
2023/05/24 03:21:06;;;;;;;9.63;5.80;;;5.30;99.90;;;;;;5016580;28;20599;-78
2023/05/24 03:23:32;;;;;;;13.60;6.00;;;5.40;99.90;;;;;;5018100;28;20637;-78
2023/05/24 03:25:57;;;;;;;8.53;4.97;;;5.30;99.90;;;;;;5016572;28;20182;-78
2023/05/24 03:28:23;;;;;;;8.50;5.03;;;5.30;99.90;;;;;;5018667;28;20192;-78
2023/05/24 03:30:49;;;;;;;10.80;5.20;;;5.20;99.90;;;;;;5016237;28;20180;-79
2023/05/24 03:33:15;;;;;;;5.87;4.43;;;5.20;99.90;;;;;;5017643;28;20191;-78
2023/05/24 03:35:40;;;;;;;7.13;5.17;;;5.20;99.90;;;;;;5017655;28;20229;-78
2023/05/24 03:38:06;;;;;;;6.47;4.37;;;5.10;99.90;;;;;;5016163;28;20200;-78
2023/05/24 03:40:33;;;;;;;4.77;4.37;;;5.10;99.90;;;;;;5015942;28;20195;-78
2023/05/24 03:42:59;;;;;;;5.83;5.00;;;5.10;99.90;;;;;;5017569;28;20187;-78
2023/05/24 03:45:25;;;;;;;9.77;5.20;;;5.10;99.90;;;;;;5017023;28;20562;-77
2023/05/24 03:47:50;;;;;;;5.17;4.53;;;5.20;99.90;;;;;;5015880;28;20219;-76
2023/05/24 03:50:16;;;;;;;9.03;4.70;;;5.40;99.90;;;;;;5014599;28;20203;-76
2023/05/24 03:52:42;;;;;;;5.53;4.50;;;5.40;99.90;;;;;;5016068;28;20180;-76
2023/05/24 03:55:08;;;;;;;6.60;4.63;;;5.50;99.90;;;;;;5015981;28;20172;-77
2023/05/24 03:57:34;;;;;;;5.60;4.60;;;5.40;99.90;;;;;;5016072;28;20200;-76
2023/05/24 04:00:00;;;;;;;6.60;4.90;;;5.30;99.90;;;;;;5015867;28;20183;-76
2023/05/24 04:02:26;;;;;;;7.80;4.60;;;5.20;99.90;;;;;;5016476;28;20530;-76
2023/05/24 04:04:52;;;;;;;6.80;4.70;;;5.20;99.90;;;;;;5014433;28;20196;-76
2023/05/24 04:07:18;;;;;;;8.10;4.90;;;5.20;99.90;;;;;;5015642;28;20215;-76
2023/05/24 04:09:44;;;;;;;5.33;4.83;;;5.20;99.90;;;;;;5014684;28;20720;-75
2023/05/24 04:12:13;;;;;;;7.97;5.10;;;5.20;99.90;;;;;;5016375;28;20200;-76
2023/05/24 04:14:42;;;;;;;8.83;5.30;;;5.20;99.90;;;;;;5014366;28;20191;-77
2023/05/24 04:17:08;;;;;;;8.80;5.10;;;5.30;99.90;;;;;;5014311;28;20200;-76
2023/05/24 04:19:34;;;;;;;8.57;5.37;;;5.30;99.90;;;;;;5014412;28;20242;-76
2023/05/24 04:22:00;;;;;;;9.87;5.47;;;5.30;99.90;;;;;;5015852;28;20188;-77
2023/05/24 04:24:26;;;;;;;6.37;4.90;;;5.40;99.90;;;;;;5014408;28;20184;-77
2023/05/24 04:26:51;;;;;;;9.90;5.33;;;5.40;99.90;;;;;;5015110;28;20266;-76
2023/05/24 04:29:17;;;;;;;14.03;5.00;;;5.50;99.90;;;;;;5015521;28;20215;-76
2023/05/24 04:31:43;;;;;;;8.33;5.30;;;5.50;99.90;;;;;;5015133;28;20196;-76
2023/05/24 04:34:13;;;;;;;9.30;5.27;;;5.50;99.90;;;;;;5013955;28;20184;-76
2023/05/24 04:36:40;;;;;;;7.43;5.37;;;5.50;99.90;;;;;;5009147;28;20212;-76
2023/05/24 04:39:05;;;;;;;5.70;5.20;;;5.70;99.90;;;;;;5015051;28;20263;-76
2023/05/24 04:41:34;;;;;;;11.77;6.40;;;5.80;99.90;;;;;;5015110;28;20342;-76
2023/05/24 04:43:59;;;;;;;7.10;5.37;;;6.00;99.90;;;;;;5013715;28;20192;-76
2023/05/24 04:46:26;;;;;;;8.97;5.77;;;6.00;99.90;;;;;;5013776;28;20677;-76
2023/05/24 04:48:52;;;;;;;9.93;5.67;;;6.00;99.90;;;;;;5015320;28;20259;-76
2023/05/24 04:51:18;;;;;;;12.07;6.30;;;6.10;99.90;;;;;;5014850;28;20624;-77
2023/05/24 04:53:44;;;;;;;15.53;6.27;;;6.10;99.90;;;;;;5013722;28;20187;-76
2023/05/24 04:56:13;;;;;;;10.07;5.77;;;6.20;99.90;;;;;;5014588;28;20187;-76
2023/05/24 04:58:39;;;;;;;7.10;5.20;;;6.30;99.90;;;;;;5013464;28;20640;-76
2023/05/24 05:01:05;;;;;;;6.30;5.10;;;6.40;99.90;;;;;;5014685;28;20180;-76
2023/05/24 05:03:31;;;;;;;10.53;6.40;;;6.50;99.90;;;;;;5014401;28;20187;-76
2023/05/24 05:05:57;;;;;;;10.10;6.13;;;6.60;99.90;;;;;;5014623;28;20184;-76
2023/05/24 05:08:22;;;;;;;11.87;6.40;;;6.70;99.90;;;;;;5014386;28;20208;-76
2023/05/24 05:10:48;;;;;;;13.10;6.50;;;6.70;99.90;;;;;;5014626;28;20168;-76
2023/05/24 05:13:14;;;;;;;16.03;5.83;;;6.70;99.90;;;;;;5013024;28;20267;-76
2023/05/24 05:15:39;;;;;;;12.13;6.27;;;6.70;99.90;;;;;;5014759;28;20530;-76
2023/05/24 05:18:05;;;;;;;11.90;6.60;;;6.70;99.90;;;;;;5013151;28;20680;-76
2023/05/24 05:20:31;;;;;;;13.70;6.20;;;6.70;99.90;;;;;;5014409;28;20190;-76
2023/05/24 05:22:56;;;;;;;12.73;6.57;;;6.70;99.90;;;;;;5013139;28;20274;-76
2023/05/24 05:25:22;;;;;;;8.93;6.00;;;6.80;99.90;;;;;;5014471;28;20186;-76
2023/05/24 05:27:48;;;;;;;11.10;6.57;;;6.90;99.90;;;;;;5014116;28;20684;-77
2023/05/24 05:30:14;;;;;;;14.37;6.57;;;6.90;99.90;;;;;;5013430;28;20223;-76
2023/05/24 05:32:40;;;;;;;16.73;7.50;;;7.00;99.90;;;;;;5012756;28;20200;-77
2023/05/24 05:35:06;;;;;;;11.97;8.50;;;7.10;99.90;;;;;;5014038;28;20249;-76
2023/05/24 05:37:32;;;;;;;28.87;8.90;;;7.20;99.90;;;;;;5012631;28;20200;-76
2023/05/24 05:39:57;;;;;;;17.27;8.27;;;7.30;99.90;;;;;;5013781;28;20545;-76
2023/05/24 05:42:23;;;;;;;23.23;8.93;;;7.40;99.90;;;;;;5014000;28;20187;-76
2023/05/24 05:44:49;;;;;;;20.87;8.63;;;7.50;99.90;;;;;;5013947;28;20203;-76
2023/05/24 05:47:14;;;;;;;23.13;9.07;;;7.60;99.90;;;;;;5014089;28;20207;-76
2023/05/24 05:49:40;;;;;;;18.33;8.47;;;7.70;99.90;;;;;;5012544;28;20175;-76
2023/05/24 05:52:06;;;;;;;16.93;8.53;;;7.90;99.90;;;;;;5013925;28;20176;-76
2023/05/24 05:54:32;;;;;;;22.90;8.30;;;8.00;99.90;;;;;;5013921;28;20183;-76
2023/05/24 05:56:58;;;;;;;13.97;8.23;;;8.00;99.90;;;;;;5012374;28;20253;-76
2023/05/24 05:59:24;;;;;;;24.30;8.40;;;8.10;99.90;;;;;;5013797;28;20203;-76
2023/05/24 06:01:50;;;;;;;24.17;8.80;;;8.20;99.90;;;;;;5012393;28;20636;-76
2023/05/24 06:04:16;;;;;;;25.67;9.47;;;8.30;99.90;;;;;;5013502;28;20186;-76
2023/05/24 06:06:44;;;;;;;29.87;8.50;;;8.20;99.90;;;;;;5013503;28;20579;-76
2023/05/24 06:09:10;;;;;;;25.27;9.23;;;8.20;99.90;;;;;;5013469;28;20178;-76
2023/05/24 06:11:35;;;;;;;23.23;9.23;;;8.30;99.90;;;;;;5012298;28;20183;-76
2023/05/24 06:14:01;;;;;;;21.87;9.27;;;8.40;99.90;;;;;;5014300;28;20645;-76
2023/05/24 06:16:27;;;;;;;24.60;9.10;;;8.40;99.90;;;;;;5016411;28;20668;-76
2023/05/24 06:18:54;;;;;;;24.27;9.53;;;8.50;99.90;;;;;;5017631;28;20194;-76
2023/05/24 06:21:20;;;;;;;23.13;10.10;;;8.50;99.90;;;;;;5016415;28;20183;-76
2023/05/24 06:23:46;;;;;;;19.77;9.67;;;8.70;99.90;;;;;;5016401;28;20188;-76
2023/05/24 06:26:11;;;;;;;19.97;9.37;;;8.80;99.90;;;;;;5016551;28;20663;-76
2023/05/24 06:28:37;;;;;;;18.37;9.13;;;8.90;99.90;;;;;;5018614;28;20210;-76
2023/05/24 06:31:04;;;;;;;19.73;9.00;;;9.00;99.90;;;;;;5017714;28;20183;-76
2023/05/24 06:33:31;;;;;;;23.93;9.70;;;9.00;99.90;;;;;;5017505;28;20187;-76
2023/05/24 06:35:57;;;;;;;30.30;9.63;;;9.00;99.90;;;;;;5017523;28;20211;-76
2023/05/24 06:38:23;;;;;;;27.03;9.50;;;9.20;99.90;;;;;;5017205;28;20203;-77
2023/05/24 06:40:49;;;;;;;27.40;9.17;;;9.30;99.90;;;;;;5015819;28;20187;-76
2023/05/24 06:43:15;;;;;;;16.17;7.77;;;9.40;99.90;;;;;;5015882;28;20214;-76
2023/05/24 06:45:41;;;;;;;22.87;7.90;;;9.60;99.90;;;;;;5017753;28;20195;-76
2023/05/24 06:48:06;;;;;;;24.17;8.47;;;9.80;99.90;;;;;;5016832;28;20215;-77
2023/05/24 06:50:32;;;;;;;32.40;10.07;;;10.00;99.90;;;;;;5017024;28;20190;-76
2023/05/24 06:52:58;;;;;;;24.33;9.33;;;10.10;99.90;;;;;;5017204;28;20175;-76
2023/05/24 06:55:24;;;;;;;25.33;8.37;;;10.20;99.90;;;;;;5016833;28;20172;-76
2023/05/24 06:57:50;;;;;;;22.40;8.27;;;10.30;99.90;;;;;;5015647;28;20208;-76
2023/05/24 07:00:16;;;;;;;25.25;8.13;;;10.50;99.90;;;;;;5017151;28;20245;-76
2023/05/24 07:02:42;;;;;;;21.87;9.07;;;10.50;99.90;;;;;;5015485;28;20184;-76
2023/05/24 07:05:11;;;;;;;28.85;9.52;;;10.60;99.90;;;;;;5016694;28;20198;-75
2023/05/24 07:07:41;;;;;;;23.20;8.17;;;10.60;99.90;;;;;;5016515;28;20211;-76
2023/05/24 07:10:09;;;;;;;26.65;8.60;;;10.70;99.90;;;;;;5016433;28;20259;-76
2023/05/24 07:12:35;;;;;;;24.65;7.72;;;10.70;99.90;;;;;;5016797;28;20194;-76
2023/05/24 07:15:01;;;;;;;20.50;7.13;;;10.80;99.90;;;;;;5015224;28;20620;-75
2023/05/24 07:17:27;;;;;;;21.77;7.10;;;10.80;99.90;;;;;;5016357;28;20218;-75
2023/05/24 07:19:53;;;;;;;23.67;6.95;;;10.70;99.90;;;;;;5016372;28;20628;-75
2023/05/24 07:22:18;;;;;;;15.75;6.50;;;10.80;99.90;;;;;;5016288;28;20524;-76
2023/05/24 07:24:44;;;;;;;26.98;7.35;;;10.90;99.90;;;;;;5015897;28;20263;-75
2023/05/24 07:27:10;;;;;;;19.98;7.43;;;11.00;99.90;;;;;;5016160;28;20238;-75
2023/05/24 07:29:36;;;;;;;25.67;6.50;;;11.00;99.90;;;;;;5015280;28;20271;-76
2023/05/24 07:32:02;;;;;;;23.02;8.65;;;11.20;99.90;;;;;;5016231;28;20624;-76
2023/05/24 07:34:30;;;;;;;20.77;7.05;;;11.30;99.90;;;;;;5016426;28;20226;-76
2023/05/24 07:36:57;;;;;;;24.50;7.13;;;11.20;99.90;;;;;;5016274;28;20196;-76
2023/05/24 07:39:25;;;;;;;14.82;7.38;;;11.10;99.90;;;;;;5015870;28;20176;-76
2023/05/24 07:41:54;;;;;;;25.80;7.38;;;11.00;99.90;;;;;;5014655;28;20180;-75
2023/05/24 07:44:20;;;;;;;19.65;7.18;;;11.00;99.90;;;;;;5015917;28;20251;-76
2023/05/24 07:46:45;;;;;;;16.92;7.03;;;11.00;99.90;;;;;;5015697;28;20294;-76
2023/05/24 07:49:11;;;;;;;20.95;7.10;;;11.00;99.90;;;;;;5014546;28;20254;-76
2023/05/24 07:51:37;;;;;;;19.15;6.90;;;11.00;99.90;;;;;;5015786;28;20261;-76
2023/05/24 07:54:04;;;;;;;17.13;6.47;;;11.10;99.90;;;;;;5015678;28;20644;-76
2023/05/24 07:56:31;;;;;;;23.02;7.20;;;11.00;99.90;;;;;;5015485;28;20659;-76
2023/05/24 07:59:03;;;;;;;19.15;7.30;;;11.00;99.90;;;;;;5015665;28;20203;-76
2023/05/24 08:01:33;;;;;;;25.02;8.13;;;11.00;99.90;;;;;;5016246;28;20167;-76
2023/05/24 08:04:02;;;;;;;25.77;9.05;;;11.00;99.90;;;;;;5015606;28;20161;-76
2023/05/24 08:06:31;;;;;;;22.85;8.60;;;10.90;99.90;;;;;;5010676;28;20586;-76
2023/05/24 08:08:57;;;;;;;22.17;8.10;;;10.90;99.90;;;;;;5014267;28;20259;-76
2023/05/24 08:11:23;;;;;;;18.90;8.20;;;11.00;99.90;;;;;;5014105;28;20180;-76
2023/05/24 08:13:49;;;;;;;21.33;8.85;;;11.00;99.90;;;;;;5015376;28;20184;-76
2023/05/24 08:16:15;;;;;;;17.48;7.90;;;10.90;99.90;;;;;;5015302;28;20543;-76
2023/05/24 08:18:40;;;;;;;28.92;8.32;;;10.90;99.90;;;;;;5014024;28;20172;-76
2023/05/24 08:21:07;;;;;;;15.90;7.10;;;11.00;99.90;;;;;;5014035;28;20295;-76
2023/05/24 08:23:33;;;;;;;19.98;8.18;;;11.00;99.90;;;;;;5015712;28;20171;-76
2023/05/24 08:25:59;;;;;;;21.40;8.85;;;11.10;99.90;;;;;;5015063;28;20168;-76
2023/05/24 08:28:25;;;;;;;20.33;7.45;;;11.00;99.90;;;;;;5014922;28;20239;-76
2023/05/24 08:30:51;;;;;;;23.23;8.40;;;11.20;99.90;;;;;;5015267;28;20226;-76
2023/05/24 08:33:17;;;;;;;22.27;8.88;;;11.20;99.90;;;;;;5014911;28;20191;-76
2023/05/24 08:35:43;;;;;;;21.75;8.82;;;11.10;99.90;;;;;;5014971;28;20190;-76
2023/05/24 08:38:09;;;;;;;23.92;9.23;;;11.10;99.90;;;;;;5013983;28;20196;-76
2023/05/24 08:40:35;;;;;;;19.33;8.77;;;11.00;99.90;;;;;;5013432;28;20179;-76
2023/05/24 08:43:01;;;;;;;15.18;8.43;;;11.10;99.90;;;;;;5013517;28;20175;-76
2023/05/24 08:45:31;;;;;;;24.45;10.23;;;11.10;99.90;;;;;;5014771;28;20176;-76
2023/05/24 08:47:58;;;;;;;28.55;8.85;;;11.20;99.90;;;;;;5014531;28;20244;-76
2023/05/24 08:50:24;;;;;;;18.35;7.32;;;11.30;99.90;;;;;;5013486;28;20207;-76
2023/05/24 08:52:51;;;;;;;27.83;8.00;;;11.30;99.90;;;;;;5014676;28;20176;-76
2023/05/24 08:55:18;;;;;;;21.65;8.32;;;11.40;99.90;;;;;;5014587;28;20180;-76
2023/05/24 08:57:45;;;;;;;25.73;8.82;;;11.50;99.90;;;;;;5014424;28;20231;-76
2023/05/24 09:00:12;;;;;;;23.10;8.63;;;11.60;99.90;;;;;;5014766;28;20701;-76
2023/05/24 09:02:40;;;;;;;21.40;8.70;;;12.00;99.90;;;;;;5013164;28;20180;-76
2023/05/24 09:05:11;;;;;;;18.23;8.75;;;12.60;1.20;;;;;;5014298;28;20254;-76
2023/05/24 09:07:37;;;;;;;22.08;6.90;;;13.10;1.00;;;;;;5015067;28;20212;-76
2023/05/24 09:10:05;;;;;;;18.08;6.97;;;13.60;82.20;;;;;;5014151;28;20182;-76
2023/05/24 09:12:31;;;;;;;17.73;6.45;;;13.80;1.00;;;;;;5014231;28;20180;-76
2023/05/24 09:14:58;;;;;;;19.27;7.05;;;13.80;1.00;;;;;;5014237;28;20176;-76
2023/05/24 09:17:24;;;;;;;12.98;6.15;;;13.50;1.00;;;;;;5012905;28;20207;-76
2023/05/24 09:19:52;;;;;;;19.88;6.85;;;13.40;1.00;;;;;;5013109;28;20652;-76
2023/05/24 09:22:24;;;;;;;16.17;6.80;;;13.20;1.00;;;;;;5014219;28;20246;-76
2023/05/24 09:24:51;;;;;;;17.50;7.05;;;13.00;1.00;;;;;;5014030;28;20167;-76
2023/05/24 09:27:21;;;;;;;16.92;6.93;;;12.70;1.00;;;;;;5014013;28;20279;-76
2023/05/24 09:29:48;;;;;;;24.38;7.05;;;12.50;1.00;;;;;;5014328;28;20156;-76
2023/05/24 09:32:22;;;;;;;16.20;6.53;;;12.40;1.00;;;;;;5013729;28;20211;-76
2023/05/24 09:34:48;;;;;;;20.85;7.07;;;12.30;1.00;;;;;;5014119;28;20514;-75
2023/05/24 09:37:20;;;;;;;19.10;6.57;;;12.20;1.00;;;;;;5012500;28;20250;-76
2023/05/24 09:39:47;;;;;;;16.17;6.03;;;12.20;1.00;;;;;;5013665;28;20522;-76
2023/05/24 09:42:22;;;;;;;17.45;5.75;;;12.20;99.90;;;;;;5013888;28;20175;-76
2023/05/24 09:45:09;;;;;;;17.20;6.43;;;12.20;66.00;;;;;;5014150;28;20524;-76
2023/05/24 09:47:40;;;;;;;18.20;6.18;;;12.20;99.90;;;;;;5013582;28;20675;-76
2023/05/24 09:50:12;;;;;;;20.33;7.68;;;12.30;88.90;;;;;;5013789;28;20603;-76
2023/05/24 09:52:39;;;;;;;20.23;8.32;;;12.40;92.20;;;;;;5012477;28;20217;-76
2023/05/24 09:55:19;;;;;;;15.73;7.35;;;12.60;79.30;;;;;;5012365;28;20180;-76
2023/05/24 09:57:49;;;;;;;20.50;7.47;;;12.70;1.00;;;;;;5013556;28;20201;-76
2023/05/24 10:00:22;;;;;;;18.42;7.60;;;12.80;1.00;;;;;;5013988;28;20164;-76
2023/05/24 10:03:01;;;;;;;15.80;6.75;;;12.80;1.00;;;;;;5013708;28;20620;-76
2023/05/24 10:05:27;;;;;;;15.82;6.57;;;13.10;1.00;;;;;;5013687;28;20202;-76
2023/05/24 10:07:54;;;;;;;16.13;6.57;;;13.20;1.00;;;;;;5012247;28;20208;-76
2023/05/24 10:10:20;;;;;;;16.42;6.00;;;13.20;1.00;;;;;;5013663;28;20175;-76
2023/05/24 10:12:47;;;;;;;20.70;6.28;;;13.20;1.00;;;;;;5012344;28;20180;-76
2023/05/24 10:15:13;;;;;;;15.00;5.70;;;13.30;1.00;;;;;;5012271;28;20180;-76
2023/05/24 10:17:39;;;;;;;16.85;5.55;;;13.30;1.00;;;;;;5013434;28;20188;-76
2023/05/24 10:20:06;;;;;;;15.30;6.07;;;13.40;99.90;;;;;;5013393;28;20180;-76
2023/05/24 10:22:36;;;;;;;13.75;5.88;;;13.20;32.50;;;;;;5013869;28;20190;-76
2023/05/24 10:25:05;;;;;;;17.10;6.25;;;13.20;1.00;;;;;;5013318;28;20248;-76
2023/05/24 10:27:32;;;;;;;17.63;6.20;;;13.10;1.00;;;;;;5013224;28;20286;-76
2023/05/24 10:30:09;;;;;;;16.70;6.53;;;13.20;1.00;;;;;;5012020;28;20649;-76
2023/05/24 10:32:37;;;;;;;20.08;6.80;;;13.10;1.00;;;;;;5013203;28;20222;-76
2023/05/24 10:35:05;;;;;;;15.45;5.72;;;13.00;1.00;;;;;;5013315;28;20278;-76
2023/05/24 10:37:31;;;;;;;15.98;6.75;;;13.00;1.00;;;;;;5011931;28;20609;-76
2023/05/24 10:39:58;;;;;;;18.65;6.75;;;12.80;1.00;;;;;;5013396;28;20263;-76
2023/05/24 10:42:25;;;;;;;20.02;5.60;;;12.70;1.00;;;;;;5013499;28;20190;-76
2023/05/24 10:44:51;;;;;;;15.15;6.25;;;12.60;1.00;;;;;;5013258;28;20180;-76
2023/05/24 10:47:19;;;;;;;14.02;5.65;;;12.50;1.00;;;;;;5013568;28;20214;-75
2023/05/24 10:49:51;;;;;;;13.50;5.97;;;12.50;1.00;;;;;;5011953;28;20184;-75
2023/05/24 10:52:17;;;;;;;20.27;6.50;;;12.60;1.00;;;;;;5013142;28;20222;-76
2023/05/24 10:55:08;;;;;;;15.77;6.57;;;12.50;1.00;;;;;;5013123;28;20179;-75
2023/05/24 10:57:38;;;;;;;19.13;6.38;;;12.50;1.00;;;;;;5013191;28;20261;-76
2023/05/24 11:00:19;;;;;;;15.43;6.32;;;12.50;1.00;;;;;;5014042;28;20556;-75
2023/05/24 11:02:49;;;;;;;13.77;6.35;;;12.50;1.00;;;;;;5015490;28;20187;-75
2023/05/24 11:05:15;;;;;;;13.98;5.72;;;12.60;1.00;;;;;;5015322;28;20196;-75
2023/05/24 11:07:41;;;;;;;14.85;5.68;;;12.70;11.30;;;;;;5015212;28;20662;-76
2023/05/24 11:10:18;;;;;;;12.90;5.53;;;12.90;21.80;;;;;;5016661;28;20538;-76
2023/05/24 11:12:44;;;;;;;15.30;5.80;;;13.10;1.00;;;;;;5016561;28;20156;-75
2023/05/24 11:15:10;;;;;;;15.35;5.65;;;13.10;99.90;;;;;;5016492;28;20175;-76
2023/05/24 11:18:12;;;;;;;16.52;5.85;;;13.30;1.00;;;;;;5016493;28;20570;-76
2023/05/24 11:20:44;;;;;;;12.23;5.40;;;13.30;99.90;;;;;;5016410;28;20155;-76
2023/05/24 11:23:10;;;;;;;19.85;5.97;;;13.50;1.00;;;;;;5015005;28;20702;-76
2023/05/24 11:25:38;;;;;;;11.55;5.10;;;13.60;99.90;;;;;;5014837;28;20563;-75
2023/05/24 11:28:11;;;;;;;15.45;5.72;;;13.50;99.90;;;;;;5014878;28;20229;-76
2023/05/24 11:30:45;;;;;;;14.88;5.75;;;13.50;1.00;;;;;;5016232;28;20690;-76
2023/05/24 11:33:18;;;;;;;14.85;5.88;;;13.30;1.00;;;;;;5016230;28;20253;-76
2023/05/24 11:35:45;;;;;;;18.95;6.38;;;13.20;1.00;;;;;;5016261;28;20515;-75
2023/05/24 11:38:12;;;;;;;20.17;5.70;;;13.10;1.00;;;;;;5015080;28;20241;-76
2023/05/24 11:40:45;;;;;;;13.88;5.25;;;13.10;1.00;;;;;;5014948;28;20230;-76
2023/05/24 11:43:20;;;;;;;19.67;6.68;;;13.10;1.00;;;;;;5015042;28;20553;-76
2023/05/24 11:45:49;;;;;;;18.58;6.15;;;13.00;1.00;;;;;;5014887;28;20562;-77
2023/05/24 11:48:17;;;;;;;15.48;6.07;;;13.00;1.00;;;;;;5016344;28;20226;-76
2023/05/24 11:50:46;;;;;;;21.48;7.72;;;12.80;99.90;;;;;;5014928;28;20179;-76
2023/05/24 11:53:13;;;;;;;16.05;6.30;;;12.80;1.00;;;;;;5015972;28;20641;-76
2023/05/24 11:55:40;;;;;;;21.05;6.72;;;12.70;1.00;;;;;;5016651;28;20251;-75
2023/05/24 11:58:31;;;;;;;17.63;6.40;;;12.60;1.00;;;;;;5016065;28;20232;-75
2023/05/24 12:00:57;;;;;;;17.00;5.97;;;12.60;1.00;;;;;;5004012;28;20235;-76
2023/05/24 12:03:23;;;;;;;17.73;7.75;;;12.50;1.00;;;;;;5015994;28;20172;-76
2023/05/24 12:05:49;;;;;;;12.88;5.78;;;12.50;1.00;;;;;;5015705;28;20201;-75
2023/05/24 12:08:15;;;;;;;15.95;6.22;;;12.50;1.00;;;;;;5015503;28;20219;-75
2023/05/24 12:10:42;;;;;;;16.20;6.32;;;12.50;1.00;;;;;;5015401;28;20168;-75
2023/05/24 12:13:24;;;;;;;16.10;6.38;;;12.50;1.00;;;;;;5015513;28;20168;-76
2023/05/24 12:15:54;;;;;;;16.27;6.13;;;12.50;37.30;;;;;;5015733;28;20156;-76
2023/05/24 12:18:24;;;;;;;13.77;6.57;;;12.40;1.00;;;;;;5014077;28;20203;-76
2023/05/24 12:20:51;;;;;;;20.67;5.95;;;12.50;1.00;;;;;;5015629;28;20219;-76
2023/05/24 12:23:23;;;;;;;18.02;6.13;;;12.50;1.00;;;;;;5013935;28;20210;-76
2023/05/24 12:25:49;;;;;;;16.85;6.07;;;12.50;1.00;;;;;;5015163;28;20164;-76
2023/05/24 12:28:18;;;;;;;18.00;6.50;;;12.40;1.00;;;;;;5015037;28;20204;-76
2023/05/24 12:30:44;;;;;;;20.65;6.30;;;12.40;1.00;;;;;;5015074;28;20179;-76
2023/05/24 12:33:10;;;;;;;21.38;6.07;;;12.40;1.00;;;;;;5014957;28;20188;-76
2023/05/24 12:35:40;;;;;;;13.55;5.75;;;12.40;1.00;;;;;;5014930;28;20192;-76
2023/05/24 12:38:08;;;;;;;16.08;5.95;;;12.50;1.00;;;;;;5014877;28;20233;-76
2023/05/24 12:40:33;;;;;;;15.90;5.80;;;12.60;1.80;;;;;;5014905;28;20176;-76
2023/05/24 12:42:59;;;;;;;17.55;6.22;;;12.50;1.00;;;;;;5013626;28;20278;-76
2023/05/24 12:45:26;;;;;;;11.02;5.45;;;12.60;1.00;;;;;;5014926;28;20652;-75
2023/05/24 12:47:58;;;;;;;19.50;6.70;;;12.60;1.00;;;;;;5013333;28;20211;-75
2023/05/24 12:50:25;;;;;;;16.50;5.90;;;12.60;1.00;;;;;;5014723;28;20168;-76